Terminal Aerodrome Forecast
Issued by NWS

Home | Current Version | Previous Version | Text Only | Print | Product List | Glossary On
Versions: 1 2 3 4 5 6 7 8 9 10 11 12 13
000
FTUS45 KTFX 010500
TAFHLN
TAF
KHLN 010520Z 0106/0206 28012G20KT P6SM VCSH SCT040 BKN060
     FM010900 31009KT P6SM VCSH SCT030 BKN050
      TEMPO 0110/0114 -SHRA BKN030
     FM011900 29011KT P6SM SCT050 SCT080
     FM020100 27008KT P6SM SKC=

USA.gov is the U.S. government's official web portal to all federal, state and local government web resources and services.